MST,Max TemperatureF,Mean TemperatureF,Min TemperatureF,Max Dew PointF,MeanDew PointF,Min DewpointF,Max Humidity, Mean Humidity, Min Humidity, Max Sea Level PressureIn, Mean Sea Level PressureIn, Min Sea Level PressureIn, Max VisibilityMiles, Mean VisibilityMiles, Min VisibilityMiles, Max Wind SpeedMPH, Mean Wind SpeedMPH, Max Gust SpeedMPH,PrecipitationIn, CloudCover, Events, WindDirDegrees
2012-11-1,59,43,26,39,34,25,100,76,51,30.07,29.96,29.85,10,10,8,8,2,9,0.00,0,,240
2012-11-2,62,45,28,40,35,27,100,66,32,30.21,30.02,29.83,10,5,0,25,8,32,0.00,3,Fog,345
2012-11-3,63,43,22,34,27,22,92,60,27,30.29,30.20,30.12,10,10,8,9,3,12,0.00,1,,247
2012-11-4,59,43,26,37,31,23,92,67,41,30.30,30.19,30.12,10,10,10,28,9,38,T,3,Rain,286
2012-11-5,64,44,23,38,33,21,96,65,34,30.32,30.16,30.03,10,10,5,18,4,28,0.00,2,,241
2012-11-6,62,46,29,38,31,25,92,62,32,30.30,30.20,30.13,10,10,2,21,7,28,0.00,1,,280
2012-11-7,78,51,23,36,27,22,92,53,14,30.14,29.91,29.76,10,8,1,20,7,25,0.00,0,,241
2012-11-8,55,42,29,33,29,25,92,65,38,30.11,29.97,29.77,10,9,4,20,7,25,0.00,0,,59
2012-11-9,55,42,29,36,32,28,96,71,46,29.90,29.78,29.62,9,5,2,16,8,21,0.00,6,,105
2012-11-10,38,27,16,36,26,10,100,84,67,30.05,29.73,29.57,9,2,0,22,10,28,0.00,8,Fog-Snow,360
2012-11-11,27,18,9,15,8,2,80,68,55,30.32,30.20,29.91,10,9,4,26,13,36,0.00,1,,278
2012-11-12,39,22,5,26,15,0,84,70,56,30.43,30.36,30.31,10,10,9,22,6,25,0.00,0,,233
2012-11-13,48,32,16,30,24,13,92,67,42,30.33,30.31,30.28,10,10,9,14,3,17,0.00,3,,239
2012-11-14,52,36,20,34,27,18,100,78,56,30.29,30.23,30.14,10,10,9,12,5,14,0.00,0,,244
2012-11-15,50,38,25,30,27,22,92,67,42,30.49,30.40,30.28,10,10,10,25,7,31,0.00,1,,189
2012-11-16,64,49,34,30,28,25,64,44,24,30.27,30.10,30.00,10,10,10,24,11,30,0.00,0,,209
2012-11-17,63,46,29,32,30,26,85,55,25,30.11,30.04,29.98,10,10,10,25,9,31,0.00,2,,255
2012-11-18,69,51,32,33,31,28,85,55,24,30.03,29.92,29.83,10,10,10,22,9,28,0.00,1,,240
2012-11-19,60,43,25,32,28,22,92,61,30,30.25,30.17,30.04,10,9,2,9,4,12,0.00,0,,221
2012-11-20,70,50,29,31,29,26,85,54,22,30.16,30.06,29.97,10,10,7,25,10,32,0.00,0,,234
2012-11-21,73,54,35,29,23,17,75,44,12,29.96,29.84,29.75,10,10,9,26,11,33,0.00,0,,241
2012-11-22,52,34,16,33,22,13,84,55,25,30.59,30.22,29.77,10,10,8,33,14,44,0.00,2,,301
2012-11-23,48,30,11,21,15,9,92,59,25,30.64,30.47,30.14,10,9,7,10,4,16,0.00,0,,234
2012-11-24,61,46,31,25,21,19,61,41,20,30.09,30.00,29.88,10,10,9,23,8,30,0.00,2,,267
2012-11-25,37,33,29,36,31,26,100,82,64,30.27,30.06,29.92,10,4,0,18,7,22,0.30,8,Fog-Rain-Snow,47
2012-11-26,29,20,10,28,22,7,100,88,75,30.53,30.35,30.18,10,3,0,14,5,16,0.17,4,Fog-Snow,350
2012-11-27,26,16,6,21,13,5,92,83,74,30.41,30.30,30.16,8,6,1,14,4,17,0.00,0,,253
2012-11-28,37,22,6,29,17,4,92,81,70,30.37,30.22,30.06,9,7,1,9,3,9,0.00,0,,245
2012-11-29,48,31,13,34,25,11,92,71,49,30.10,30.05,29.99,10,9,8,13,4,25,0.00,0,,253
2012-11-30,64,45,25,38,29,23,100,66,32,30.08,29.91,29.76,10,10,9,23,8,28,0.00,0,,196